createdAt,value
2022-10-19T00:01:03.079Z,6.57
2022-10-19T00:03:30.155Z,6.80
2022-10-19T00:05:57.040Z,5.88
2022-10-19T00:08:23.894Z,5.90
2022-10-19T00:10:50.632Z,6.38
2022-10-19T00:13:17.440Z,7.13
2022-10-19T00:15:45.311Z,7.03
2022-10-19T00:18:13.549Z,7.20
2022-10-19T00:20:40.464Z,7.45
2022-10-19T00:23:07.427Z,8.18
2022-10-19T00:25:34.245Z,8.05
2022-10-19T00:28:01.104Z,8.43
2022-10-19T00:30:27.943Z,7.65
2022-10-19T00:32:54.747Z,7.60
2022-10-19T00:35:23.022Z,8.50
2022-10-19T00:37:49.779Z,7.90
2022-10-19T00:40:16.760Z,8.23
2022-10-19T00:42:43.805Z,8.05
2022-10-19T00:45:15.983Z,8.48
2022-10-19T00:47:44.986Z,8.05
2022-10-19T00:50:14.569Z,7.93
2022-10-19T00:52:42.926Z,7.47
2022-10-19T00:55:11.278Z,8.07
2022-10-19T00:57:38.479Z,8.45
2022-10-19T01:00:07.667Z,8.13
2022-10-19T01:02:35.338Z,7.45
2022-10-19T01:05:03.218Z,8.88
2022-10-19T01:07:30.614Z,8.35
2022-10-19T01:10:00.580Z,8.50
2022-10-19T01:12:58.407Z,8.13
2022-10-19T01:15:32.840Z,8.75
2022-10-19T01:18:07.808Z,8.77
2022-10-19T01:21:01.444Z,7.68
2022-10-19T01:23:51.441Z,8.02
2022-10-19T01:26:36.513Z,8.63
2022-10-19T01:29:13.771Z,7.88
2022-10-19T01:31:48.266Z,10.35
2022-10-19T01:34:20.028Z,8.77
2022-10-19T01:36:59.689Z,9.52
2022-10-19T01:39:33.493Z,9.20
2022-10-19T01:42:06.400Z,9.25
2022-10-19T01:44:40.061Z,9.47
2022-10-19T01:47:15.721Z,9.40
2022-10-19T01:49:44.768Z,9.70
2022-10-19T01:52:16.073Z,8.75
2022-10-19T01:54:47.673Z,9.00
2022-10-19T01:57:20.877Z,10.05
2022-10-19T01:59:49.339Z,8.73
2022-10-19T02:02:18.678Z,10.45
2022-10-19T02:04:46.909Z,10.07
2022-10-19T02:07:14.233Z,11.18
2022-10-19T02:09:41.030Z,11.60
2022-10-19T02:12:11.399Z,12.07
2022-10-19T02:14:42.851Z,11.05
2022-10-19T02:17:13.914Z,11.35
2022-10-19T02:19:42.168Z,9.48
2022-10-19T02:22:10.157Z,10.65
2022-10-19T02:24:36.955Z,10.82
2022-10-19T02:27:05.601Z,10.70
2022-10-19T02:29:33.110Z,10.25
2022-10-19T02:32:00.160Z,10.60
2022-10-19T02:34:27.145Z,10.18
2022-10-19T02:36:55.773Z,11.23
2022-10-19T02:39:23.174Z,10.82
2022-10-19T02:41:55.176Z,12.23
2022-10-19T02:44:26.814Z,10.63
2022-10-19T02:46:58.108Z,11.23
2022-10-19T02:49:25.542Z,12.07
2022-10-19T02:52:00.861Z,10.27
2022-10-19T02:54:28.312Z,10.25
2022-10-19T02:56:55.210Z,9.63
2022-10-19T02:59:22.729Z,10.73
2022-10-19T03:01:49.848Z,11.55
2022-10-19T03:04:16.887Z,11.18
2022-10-19T03:06:43.991Z,11.40
2022-10-19T03:09:12.245Z,11.90
2022-10-19T03:11:39.096Z,10.65
2022-10-19T03:14:05.889Z,11.32
2022-10-19T03:16:32.846Z,11.52
2022-10-19T03:18:59.568Z,10.57
2022-10-19T03:21:26.353Z,11.25
2022-10-19T03:23:53.099Z,11.48
2022-10-19T03:26:21.301Z,11.00
2022-10-19T03:28:48.151Z,11.35
2022-10-19T03:31:14.982Z,10.27
2022-10-19T03:33:41.766Z,9.90
2022-10-19T03:36:17.191Z,9.10
2022-10-19T03:38:44.181Z,10.55
2022-10-19T03:41:12.397Z,9.27
2022-10-19T03:43:41.307Z,10.27
2022-10-19T03:46:08.769Z,10.45
2022-10-19T03:48:35.845Z,9.85
2022-10-19T03:51:05.319Z,11.43
2022-10-19T03:53:33.221Z,12.77
2022-10-19T03:56:04.913Z,10.95
2022-10-19T03:58:34.124Z,11.95
2022-10-19T04:01:06.332Z,11.93
2022-10-19T04:03:33.278Z,11.40
2022-10-19T04:06:03.851Z,11.68
2022-10-19T04:08:31.193Z,10.57
2022-10-19T04:11:01.495Z,10.27
2022-10-19T04:13:29.039Z,12.18
2022-10-19T04:15:56.057Z,10.10
2022-10-19T04:18:24.201Z,9.35
2022-10-19T04:20:56.150Z,9.13
2022-10-19T04:23:23.044Z,9.07
2022-10-19T04:25:49.978Z,8.55
2022-10-19T04:28:16.744Z,8.80
2022-10-19T04:30:43.586Z,8.27
2022-10-19T04:33:10.448Z,8.70
2022-10-19T04:35:38.590Z,8.85
2022-10-19T04:38:05.401Z,7.93
2022-10-19T04:40:34.842Z,7.90
2022-10-19T04:43:01.631Z,8.43
2022-10-19T04:45:28.450Z,8.40
2022-10-19T04:47:56.635Z,9.20
2022-10-19T04:50:23.705Z,9.57
2022-10-19T04:52:51.939Z,8.35
2022-10-19T04:55:18.761Z,8.50
2022-10-19T04:57:45.544Z,8.13
2022-10-19T05:00:13.711Z,8.57
2022-10-19T05:02:43.718Z,8.85
2022-10-19T05:05:10.486Z,9.10
2022-10-19T05:07:37.321Z,8.25
2022-10-19T05:10:06.727Z,8.90
2022-10-19T05:12:35.301Z,9.48
2022-10-19T05:15:02.167Z,9.45
2022-10-19T05:17:30.288Z,7.78
2022-10-19T05:19:57.448Z,9.02
2022-10-19T05:22:24.430Z,8.73
2022-10-19T05:24:54.497Z,7.50
2022-10-19T05:27:26.115Z,8.90
2022-10-19T05:29:52.880Z,8.30
2022-10-19T05:32:19.700Z,8.38
2022-10-19T05:34:46.527Z,8.00
2022-10-19T05:37:13.301Z,8.48
2022-10-19T05:39:40.261Z,9.02
2022-10-19T05:42:06.997Z,7.40
2022-10-19T05:44:36.060Z,7.68
2022-10-19T05:47:02.910Z,9.05
2022-10-19T05:49:30.155Z,8.00
2022-10-19T05:51:56.956Z,7.80
2022-10-19T05:54:26.357Z,9.10
2022-10-19T05:56:55.360Z,9.15
2022-10-19T05:59:23.637Z,8.50
2022-10-19T06:01:51.784Z,8.73
2022-10-19T06:04:19.498Z,8.77
2022-10-19T06:06:46.334Z,8.60
2022-10-19T06:09:13.266Z,7.82
2022-10-19T06:11:41.986Z,9.23
2022-10-19T06:14:12.295Z,9.05
2022-10-19T06:16:39.115Z,9.35
2022-10-19T06:19:07.443Z,10.30
2022-10-19T06:21:34.721Z,9.52
2022-10-19T06:24:03.640Z,8.50
2022-10-19T06:26:32.076Z,8.70
2022-10-19T06:29:00.728Z,9.45
2022-10-19T06:31:27.771Z,9.93
2022-10-19T06:33:55.680Z,9.90
2022-10-19T06:36:25.995Z,9.88
2022-10-19T06:38:53.283Z,10.60
2022-10-19T06:41:20.988Z,9.95
2022-10-19T06:43:51.407Z,10.30
2022-10-19T06:46:20.719Z,11.77
2022-10-19T06:48:51.643Z,9.85
2022-10-19T06:51:18.448Z,10.77
2022-10-19T06:53:46.953Z,10.18
2022-10-19T06:56:14.013Z,12.32
2022-10-19T06:58:40.827Z,9.88
2022-10-19T07:01:08.732Z,12.13
2022-10-19T07:03:36.582Z,10.27
2022-10-19T07:06:05.439Z,11.10
2022-10-19T07:08:33.238Z,10.48
2022-10-19T07:11:04.745Z,10.07
2022-10-19T07:13:31.625Z,10.63
2022-10-19T07:15:59.233Z,10.43
2022-10-19T07:18:26.763Z,9.98
2022-10-19T07:20:57.762Z,10.27
2022-10-19T07:23:25.314Z,10.52
2022-10-19T07:25:53.729Z,9.35
2022-10-19T07:28:22.296Z,9.48
2022-10-19T07:30:49.221Z,11.18
2022-10-19T07:35:47.889Z,9.48
2022-10-19T07:38:14.719Z,8.93
2022-10-19T07:40:44.855Z,9.77
2022-10-19T07:43:14.178Z,8.82
2022-10-19T07:45:42.407Z,9.30
2022-10-19T07:48:09.160Z,8.43
2022-10-19T07:50:36.095Z,8.75
2022-10-19T07:53:05.290Z,7.75
2022-10-19T07:55:34.175Z,8.82
2022-10-19T07:58:02.135Z,9.30
2022-10-19T08:00:29.805Z,8.63
2022-10-19T08:03:31.189Z,8.25
2022-10-19T08:05:45.043Z,8.52
2022-10-19T08:08:11.802Z,8.73
2022-10-19T08:10:38.811Z,8.75
2022-10-19T08:13:05.502Z,8.93
2022-10-19T08:15:32.553Z,9.55
2022-10-19T08:18:01.479Z,9.10
2022-10-19T08:20:28.313Z,8.48
2022-10-19T08:22:58.107Z,8.50
2022-10-19T08:25:26.057Z,9.60
2022-10-19T08:27:52.936Z,8.98
2022-10-19T08:30:19.807Z,9.98
2022-10-19T08:32:46.626Z,9.23
2022-10-19T08:35:14.867Z,8.93
2022-10-19T08:37:45.281Z,9.05
2022-10-19T08:40:17.642Z,9.40
2022-10-19T08:42:52.921Z,8.63
2022-10-19T08:45:39.380Z,9.30
2022-10-19T08:48:23.826Z,9.15
2022-10-19T08:50:54.761Z,9.65
2022-10-19T08:53:27.955Z,8.57
2022-10-19T08:56:04.919Z,9.40
2022-10-19T08:58:55.453Z,7.68
2022-10-19T09:01:35.395Z,8.80
2022-10-19T09:04:10.048Z,8.13
2022-10-19T09:06:49.780Z,7.95
2022-10-19T09:09:20.568Z,7.85
2022-10-19T09:11:49.687Z,8.73
2022-10-19T09:14:21.047Z,7.25
2022-10-19T09:16:48.001Z,7.03
2022-10-19T09:19:22.944Z,7.82
2022-10-19T09:21:54.493Z,7.50
2022-10-19T09:24:30.377Z,6.82
2022-10-19T09:26:59.807Z,7.43
2022-10-19T09:29:34.220Z,7.38
2022-10-19T09:32:05.266Z,7.20
2022-10-19T09:34:36.800Z,7.18
2022-10-19T09:37:04.954Z,6.70
2022-10-19T09:39:32.136Z,7.18
2022-10-19T09:42:05.095Z,6.43
2022-10-19T09:44:32.723Z,6.05
2022-10-19T09:47:13.927Z,6.55
2022-10-19T09:49:43.165Z,6.18
2022-10-19T09:52:33.802Z,6.10
2022-10-19T09:55:03.249Z,6.75
2022-10-19T09:57:30.746Z,6.28
2022-10-19T09:59:57.974Z,5.57
2022-10-19T10:02:31.475Z,5.95
2022-10-19T10:05:06.470Z,6.32
2022-10-19T10:07:37.719Z,5.80
2022-10-19T10:10:11.245Z,6.10
2022-10-19T10:12:40.331Z,6.25
2022-10-19T10:15:08.112Z,5.93
2022-10-19T10:17:36.888Z,5.78
2022-10-19T10:20:20.978Z,5.65
2022-10-19T10:25:21.929Z,6.28
2022-10-19T10:27:56.021Z,5.78
2022-10-19T10:30:22.984Z,6.25
2022-10-19T10:32:52.559Z,6.15
2022-10-19T10:35:23.282Z,6.57
2022-10-19T10:37:50.427Z,6.57
2022-10-19T10:40:23.785Z,6.50
2022-10-19T10:42:53.627Z,6.47
2022-10-19T10:45:24.598Z,6.28
2022-10-19T10:47:52.934Z,5.72
2022-10-19T10:50:22.911Z,5.63
2022-10-19T10:53:00.885Z,5.85
2022-10-19T10:55:29.662Z,6.68
2022-10-19T10:58:11.894Z,5.50
2022-10-19T11:00:40.385Z,6.18
2022-10-19T11:03:14.581Z,6.40
2022-10-19T11:05:45.398Z,6.90
2022-10-19T11:08:23.802Z,6.20
2022-10-19T11:10:58.936Z,6.20
2022-10-19T11:13:31.027Z,6.63
2022-10-19T11:16:02.732Z,6.47
2022-10-19T11:18:32.603Z,7.38
2022-10-19T11:21:06.131Z,6.32
2022-10-19T11:23:45.993Z,6.90
2022-10-19T11:26:33.641Z,5.97
2022-10-19T11:29:13.985Z,5.95
2022-10-19T11:31:47.222Z,6.82
2022-10-19T11:34:37.940Z,7.25
2022-10-19T11:37:17.231Z,7.72
2022-10-19T11:39:55.674Z,6.85
2022-10-19T11:42:34.617Z,7.78
2022-10-19T11:45:13.606Z,7.28
2022-10-19T11:47:54.598Z,8.05
2022-10-19T11:50:33.429Z,7.60
2022-10-19T11:53:07.732Z,7.53
2022-10-19T11:55:42.092Z,7.97
2022-10-19T11:58:31.152Z,7.57
2022-10-19T12:01:14.364Z,7.80
2022-10-19T12:04:17.477Z,8.45
2022-10-19T12:06:52.051Z,7.65
2022-10-19T12:09:28.272Z,7.30
2022-10-19T12:12:09.225Z,8.45
2022-10-19T12:14:41.129Z,8.35
2022-10-19T12:19:46.505Z,7.22
2022-10-19T12:22:19.279Z,7.35
2022-10-19T12:24:46.566Z,8.27
2022-10-19T12:27:16.532Z,7.70
2022-10-19T12:29:49.035Z,8.25
2022-10-19T12:32:19.885Z,7.40
2022-10-19T12:34:56.518Z,8.23
2022-10-19T12:37:28.179Z,8.73
2022-10-19T12:40:00.891Z,7.88
2022-10-19T12:42:32.599Z,7.90
2022-10-19T12:45:25.318Z,8.05
2022-10-19T12:48:23.002Z,7.93
2022-10-19T12:51:02.199Z,7.60
2022-10-19T12:53:31.373Z,7.88
2022-10-19T12:56:01.425Z,7.03
2022-10-19T12:58:34.391Z,8.00
2022-10-19T13:01:05.676Z,8.00
2022-10-19T13:03:35.189Z,8.65
2022-10-19T13:06:07.089Z,8.50
2022-10-19T13:08:41.549Z,8.98
2022-10-19T13:11:14.699Z,8.95
2022-10-19T13:13:55.243Z,7.57
2022-10-19T13:17:00.360Z,8.68
2022-10-19T13:19:27.425Z,8.05
2022-10-19T13:22:14.773Z,8.07
2022-10-19T13:27:26.095Z,9.18
2022-10-19T13:29:53.172Z,7.95
2022-10-19T13:32:43.497Z,7.35
2022-10-19T13:35:30.282Z,7.80
2022-10-19T13:38:28.073Z,7.43
2022-10-19T13:41:14.187Z,7.88
2022-10-19T13:43:51.721Z,7.97
2022-10-19T13:46:21.511Z,7.63
2022-10-19T13:49:15.158Z,9.25
2022-10-19T13:51:54.243Z,7.93
2022-10-19T13:54:42.666Z,8.82
2022-10-19T13:57:23.028Z,9.13
2022-10-19T14:00:18.997Z,8.80
2022-10-19T14:03:04.322Z,8.48
2022-10-19T14:05:55.831Z,8.70
2022-10-19T14:08:54.471Z,9.27
2022-10-19T14:11:26.270Z,8.48
2022-10-19T14:14:12.925Z,8.88
2022-10-19T14:16:50.760Z,9.18
2022-10-19T14:19:27.436Z,8.32
2022-10-19T14:21:58.618Z,8.23
2022-10-19T14:24:29.587Z,8.35
2022-10-19T14:26:57.131Z,8.75
2022-10-19T14:29:24.048Z,8.18
2022-10-19T14:31:52.288Z,8.50
2022-10-19T14:34:19.421Z,8.88
2022-10-19T14:36:48.799Z,8.38
2022-10-19T14:39:34.870Z,7.68
2022-10-19T14:42:05.871Z,7.95
2022-10-19T14:44:39.678Z,8.00
2022-10-19T14:49:45.034Z,8.15
2022-10-19T14:52:19.104Z,8.50
2022-10-19T14:54:51.780Z,6.97
2022-10-19T14:57:24.819Z,7.15
2022-10-19T14:59:54.934Z,7.72
2022-10-19T15:02:25.468Z,7.65
2022-10-19T15:04:54.413Z,7.30
2022-10-19T15:07:24.609Z,7.80
2022-10-19T15:09:56.726Z,7.47
2022-10-19T15:12:27.541Z,7.60
2022-10-19T15:14:54.860Z,8.77
2022-10-19T15:17:25.222Z,8.38
2022-10-19T15:19:52.778Z,7.95
2022-10-19T15:22:21.951Z,7.72
2022-10-19T15:25:02.687Z,7.60
2022-10-19T15:27:32.566Z,8.02
2022-10-19T15:30:01.132Z,7.55
2022-10-19T15:32:32.274Z,7.22
2022-10-19T15:34:59.409Z,7.35
2022-10-19T15:39:59.522Z,7.28
2022-10-19T15:42:37.604Z,7.25
2022-10-19T15:45:25.169Z,8.63
2022-10-19T15:48:23.877Z,9.70
2022-10-19T15:50:53.230Z,8.73
2022-10-19T15:53:20.790Z,8.25
2022-10-19T15:55:47.690Z,6.63
2022-10-19T15:58:15.258Z,7.38
2022-10-19T16:00:42.331Z,7.18
2022-10-19T16:03:09.339Z,8.43
2022-10-19T16:05:37.739Z,8.20
2022-10-19T16:08:07.866Z,8.10
2022-10-19T16:10:37.040Z,7.75
2022-10-19T16:13:03.923Z,7.47
2022-10-19T16:15:30.717Z,7.50
2022-10-19T16:18:00.006Z,8.52
2022-10-19T16:20:28.946Z,7.72
2022-10-19T16:22:57.786Z,7.05
2022-10-19T16:25:24.620Z,6.90
2022-10-19T16:27:51.599Z,7.70
2022-10-19T16:30:18.448Z,8.18
2022-10-19T16:32:47.993Z,8.32
2022-10-19T16:35:15.015Z,7.47
2022-10-19T16:37:41.742Z,9.30
2022-10-19T16:40:11.087Z,8.52
2022-10-19T16:42:38.104Z,8.48
2022-10-19T16:45:05.965Z,8.55
2022-10-19T16:47:32.784Z,7.82
2022-10-19T16:50:01.108Z,8.93
2022-10-19T16:52:28.264Z,8.15
2022-10-19T16:54:55.294Z,9.85
2022-10-19T16:57:23.640Z,10.18
2022-10-19T17:02:23.694Z,9.07
2022-10-19T17:04:50.594Z,9.35
2022-10-19T17:07:19.078Z,9.50
2022-10-19T17:09:46.296Z,9.63
2022-10-19T17:12:14.427Z,9.93
2022-10-19T17:14:43.466Z,9.18
2022-10-19T17:17:11.110Z,9.07
2022-10-19T17:19:38.135Z,9.48
2022-10-19T17:22:05.628Z,9.80
2022-10-19T17:24:32.549Z,9.80
2022-10-19T17:27:02.723Z,9.77
2022-10-19T17:29:30.126Z,9.85
2022-10-19T17:31:58.929Z,11.05
2022-10-19T17:34:27.351Z,10.82
2022-10-19T17:36:54.639Z,9.32
2022-10-19T17:39:25.789Z,10.40
2022-10-19T17:41:57.574Z,10.63
2022-10-19T17:44:24.465Z,11.68
2022-10-19T17:46:51.204Z,10.00
2022-10-19T17:49:19.385Z,11.95
2022-10-19T17:51:46.279Z,11.20
2022-10-19T17:54:14.386Z,9.60
2022-10-19T17:56:41.795Z,11.50
2022-10-19T17:59:09.176Z,10.40
2022-10-19T18:01:36.930Z,10.60
2022-10-19T18:04:03.785Z,12.10
2022-10-19T18:06:33.269Z,12.43
2022-10-19T18:09:02.054Z,12.40
2022-10-19T18:11:30.897Z,12.95
2022-10-19T18:14:00.133Z,11.68
2022-10-19T18:16:28.967Z,12.35
2022-10-19T18:18:57.457Z,12.30
2022-10-19T18:21:27.382Z,12.88
2022-10-19T18:23:57.444Z,13.77
2022-10-19T18:26:26.884Z,12.65
2022-10-19T18:28:55.180Z,12.73
2022-10-19T18:31:24.237Z,14.20
2022-10-19T18:33:57.422Z,20.92
2022-10-19T18:36:24.413Z,16.55
2022-10-19T18:38:52.101Z,16.67
2022-10-19T18:41:20.815Z,17.58
2022-10-19T18:43:51.756Z,14.95
2022-10-19T18:46:19.198Z,14.27
2022-10-19T18:48:46.666Z,15.93
2022-10-19T18:51:15.628Z,16.65
2022-10-19T18:53:43.460Z,16.65
2022-10-19T18:56:12.979Z,15.82
2022-10-19T18:58:41.782Z,16.92
2022-10-19T19:01:11.055Z,16.48
2022-10-19T19:03:39.881Z,16.20
2022-10-19T19:06:09.601Z,19.83
2022-10-19T19:08:36.537Z,15.80
2022-10-19T19:11:11.317Z,16.98
2022-10-19T19:13:38.586Z,19.23
2022-10-19T19:16:07.555Z,18.63
2022-10-19T19:18:34.964Z,18.42
2022-10-19T19:21:02.308Z,18.98
2022-10-19T19:23:29.401Z,18.55
2022-10-19T19:25:56.645Z,17.35
2022-10-19T19:28:23.505Z,18.75
2022-10-19T19:30:50.279Z,20.33
2022-10-19T19:33:18.446Z,17.83
2022-10-19T19:35:46.520Z,19.67
2022-10-19T19:38:15.214Z,20.00
2022-10-19T19:40:43.413Z,18.30
2022-10-19T19:43:10.853Z,19.70
2022-10-19T19:45:38.353Z,18.85
2022-10-19T19:48:06.735Z,19.92
2022-10-19T19:50:38.214Z,19.05
2022-10-19T19:53:05.162Z,19.20
2022-10-19T19:55:38.167Z,20.40
2022-10-19T19:58:05.952Z,19.10
2022-10-19T20:00:32.890Z,20.55
2022-10-19T20:02:59.996Z,22.00
2022-10-19T20:05:28.420Z,21.55
2022-10-19T20:07:56.627Z,19.83
2022-10-19T20:10:23.777Z,19.67
2022-10-19T20:12:50.714Z,20.60
2022-10-19T20:15:18.394Z,20.30
2022-10-19T20:17:45.548Z,20.33
2022-10-19T20:20:13.694Z,21.17
2022-10-19T20:22:45.094Z,19.50
2022-10-19T20:25:13.302Z,21.35
2022-10-19T20:27:40.443Z,20.02
2022-10-19T20:30:08.710Z,19.35
2022-10-19T20:32:36.129Z,20.70
2022-10-19T20:35:03.816Z,20.30
2022-10-19T20:37:31.380Z,21.30
2022-10-19T20:39:58.395Z,20.05
2022-10-19T20:42:26.532Z,19.05
2022-10-19T20:44:54.745Z,19.45
2022-10-19T20:47:21.595Z,19.33
2022-10-19T20:49:48.438Z,19.58
2022-10-19T20:52:15.187Z,19.27
2022-10-19T20:54:42.064Z,18.45
2022-10-19T20:57:08.879Z,18.30
2022-10-19T20:59:38.750Z,49.95
2022-10-19T21:02:05.523Z,110.80
2022-10-19T21:04:32.364Z,144.32
2022-10-19T21:07:00.165Z,68.85
2022-10-19T21:09:26.939Z,35.03
2022-10-19T21:11:53.817Z,20.83
2022-10-19T21:14:25.336Z,19.30
2022-10-19T21:16:56.910Z,18.85
2022-10-19T21:19:25.612Z,17.73
2022-10-19T21:21:57.738Z,17.23
2022-10-19T21:24:26.796Z,18.38
2022-10-19T21:26:53.887Z,17.83
2022-10-19T21:29:20.845Z,17.90
2022-10-19T21:31:49.503Z,17.40
2022-10-19T21:34:19.922Z,19.10
2022-10-19T21:36:47.004Z,20.27
2022-10-19T21:39:13.864Z,18.35
2022-10-19T21:41:40.663Z,18.65
2022-10-19T21:44:07.451Z,17.20
2022-10-19T21:46:34.565Z,17.33
2022-10-19T21:49:01.396Z,15.75
2022-10-19T21:51:35.104Z,15.07
2022-10-19T21:54:02.281Z,16.88
2022-10-19T21:56:29.553Z,16.95
2022-10-19T21:58:56.734Z,16.90
2022-10-19T22:01:25.550Z,18.08
2022-10-19T22:03:56.139Z,16.50
2022-10-19T22:06:23.089Z,16.95
2022-10-19T22:08:51.369Z,15.60
2022-10-19T22:11:18.152Z,17.08
2022-10-19T22:13:44.933Z,15.98
2022-10-19T22:16:14.387Z,16.98
2022-10-19T22:18:41.968Z,15.40
2022-10-19T22:21:10.728Z,15.63
2022-10-19T22:23:37.555Z,15.75
2022-10-19T22:26:13.613Z,14.70
2022-10-19T22:28:40.837Z,15.57
2022-10-19T22:31:07.735Z,15.20
2022-10-19T22:33:34.798Z,15.48
2022-10-19T22:36:03.410Z,14.73
2022-10-19T22:38:30.433Z,14.60
2022-10-19T22:40:57.215Z,16.40
2022-10-19T22:43:25.422Z,15.10
2022-10-19T22:45:52.215Z,16.67
2022-10-19T22:48:19.541Z,13.93
2022-10-19T22:50:46.574Z,15.82
2022-10-19T22:53:13.611Z,14.52
2022-10-19T22:55:40.663Z,15.05
2022-10-19T22:58:08.456Z,15.15
2022-10-19T23:00:36.931Z,15.13
2022-10-19T23:03:04.437Z,15.80
2022-10-19T23:05:31.452Z,14.45
2022-10-19T23:07:58.337Z,14.15
2022-10-19T23:10:25.687Z,15.80
2022-10-19T23:12:54.023Z,15.45
2022-10-19T23:15:21.597Z,14.60
2022-10-19T23:17:49.787Z,14.63
2022-10-19T23:20:16.631Z,14.13
2022-10-19T23:22:43.372Z,16.35
2022-10-19T23:25:10.165Z,16.17
2022-10-19T23:27:37.484Z,14.63
2022-10-19T23:30:05.251Z,15.88
2022-10-19T23:32:32.160Z,16.48
2022-10-19T23:35:00.327Z,16.20
2022-10-19T23:37:27.218Z,15.38
2022-10-19T23:39:54.039Z,16.90
2022-10-19T23:42:20.749Z,15.95
2022-10-19T23:44:47.549Z,16.00
2022-10-19T23:47:14.284Z,16.15
2022-10-19T23:49:41.142Z,16.92
2022-10-19T23:52:09.253Z,16.77
2022-10-19T23:54:36.156Z,16.45
2022-10-19T23:57:03.053Z,16.75
2022-10-19T23:59:29.835Z,15.60
